Time;durP1;ratioP1;P1;durP2;ratioP2;P2;SDS_P1;SDS_P2;PMS_P1;PMS_P2;Temp;Humidity;BMP_temperature;BMP_pressure;BME280_temperature;BME280_humidity;BME280_pressure;Samples;Min_cycle;Max_cycle;Signal;HPM_P1;HPM_P2
2022/07/07 03:02:37;;;;;;;17.35;5.15;;;15.90;99.90;;;;;;6243578;22;20085;-84
2022/07/07 03:05:03;;;;;;;13.63;4.00;;;15.90;99.90;;;;;;6246942;23;20012;-79
2022/07/07 03:07:28;;;;;;;12.57;3.65;;;15.90;99.90;;;;;;6221064;23;20023;-83
2022/07/07 03:09:54;;;;;;;15.30;4.22;;;15.90;99.90;;;;;;6221284;23;20012;-84
2022/07/07 03:12:19;;;;;;;11.95;4.15;;;15.90;99.90;;;;;;6248756;22;20023;-83
2022/07/07 03:14:45;;;;;;;20.85;4.05;;;15.80;99.90;;;;;;6248891;23;20015;-84
2022/07/07 03:17:11;;;;;;;15.15;4.57;;;15.80;99.90;;;;;;6221884;23;20020;-85
2022/07/07 03:19:36;;;;;;;17.70;5.63;;;15.80;99.90;;;;;;6223867;23;20413;-84
2022/07/07 03:22:02;;;;;;;16.23;4.63;;;15.80;99.90;;;;;;6247800;22;20012;-84
2022/07/07 03:24:29;;;;;;;12.50;3.80;;;15.80;99.90;;;;;;6249261;23;20074;-83
2022/07/07 03:26:55;;;;;;;8.93;3.72;;;15.70;99.90;;;;;;6249266;23;20012;-81
2022/07/07 03:29:21;;;;;;;13.82;3.53;;;15.70;99.90;;;;;;6247032;23;20477;-82
2022/07/07 03:31:47;;;;;;;15.07;3.67;;;15.70;99.90;;;;;;6246281;22;20071;-81
2022/07/07 03:34:13;;;;;;;14.38;3.83;;;15.70;99.90;;;;;;6246208;23;20016;-82
2022/07/07 03:36:39;;;;;;;15.23;3.70;;;15.70;99.90;;;;;;6245704;23;20319;-84
2022/07/07 03:39:05;;;;;;;16.70;3.67;;;15.70;99.90;;;;;;6248343;23;20489;-85
2022/07/07 03:41:30;;;;;;;12.95;2.58;;;15.70;99.90;;;;;;6247845;22;20019;-84
2022/07/07 03:43:56;;;;;;;14.27;2.83;;;15.70;99.90;;;;;;6248562;23;20008;-83
2022/07/07 03:46:22;;;;;;;12.82;2.10;;;15.70;99.90;;;;;;6246219;23;20004;-82
2022/07/07 03:48:48;;;;;;;11.45;2.35;;;15.60;99.90;;;;;;6248453;23;20377;-81
2022/07/07 03:51:14;;;;;;;16.40;2.72;;;15.60;99.90;;;;;;6246116;22;20460;-82
2022/07/07 03:53:40;;;;;;;10.65;2.25;;;15.60;99.90;;;;;;6246974;23;20047;-81
2022/07/07 03:56:05;;;;;;;15.27;2.30;;;15.60;99.90;;;;;;6248104;23;20337;-82
2022/07/07 03:58:31;;;;;;;12.52;1.95;;;15.60;99.90;;;;;;6246680;23;20478;-83
2022/07/07 04:00:59;;;;;;;15.15;2.25;;;15.50;99.90;;;;;;6245926;22;20512;-82
2022/07/07 04:03:26;;;;;;;12.60;1.73;;;15.50;99.90;;;;;;6247277;23;20469;-84
2022/07/07 04:05:51;;;;;;;12.23;1.60;;;15.40;99.90;;;;;;6246682;23;20039;-83
2022/07/07 04:08:17;;;;;;;8.40;1.65;;;15.40;99.90;;;;;;6246927;23;20096;-84
2022/07/07 04:10:43;;;;;;;13.75;1.85;;;15.40;99.90;;;;;;6246801;22;20023;-83
2022/07/07 04:13:09;;;;;;;12.38;1.55;;;15.40;99.90;;;;;;6220861;23;20040;-84
2022/07/07 04:15:35;;;;;;;11.02;1.40;;;15.40;99.90;;;;;;6246591;23;20022;-83
2022/07/07 04:18:02;;;;;;;9.55;1.38;;;15.30;99.90;;;;;;6246733;23;20016;-83
2022/07/07 04:20:29;;;;;;;9.30;1.52;;;15.40;99.90;;;;;;6220478;22;20061;-84
2022/07/07 04:22:56;;;;;;;9.27;1.60;;;15.30;99.90;;;;;;6246400;23;20039;-85
2022/07/07 04:25:21;;;;;;;7.50;1.27;;;15.30;99.90;;;;;;6246717;23;20023;-84
2022/07/07 04:27:47;;;;;;;11.98;1.88;;;15.30;99.90;;;;;;6246792;23;20438;-84
2022/07/07 04:30:14;;;;;;;9.50;1.40;;;15.30;99.90;;;;;;6248234;22;20012;-83
2022/07/07 04:32:40;;;;;;;9.93;1.95;;;15.30;99.90;;;;;;6248737;22;20058;-86
2022/07/07 04:35:07;;;;;;;11.68;1.63;;;15.30;99.90;;;;;;6246084;23;20016;-83
2022/07/07 04:37:32;;;;;;;10.23;1.80;;;15.20;99.90;;;;;;6245944;23;20016;-85
2022/07/07 04:39:58;;;;;;;10.98;2.00;;;15.20;99.90;;;;;;6246849;23;20102;-85
2022/07/07 04:42:24;;;;;;;5.40;1.23;;;15.20;99.90;;;;;;6246258;22;20430;-86
2022/07/07 04:44:50;;;;;;;8.93;1.30;;;15.10;99.90;;;;;;6246042;23;20016;-86
2022/07/07 04:47:16;;;;;;;6.00;1.45;;;15.10;99.90;;;;;;6247709;23;20091;-84
2022/07/07 04:49:42;;;;;;;10.15;1.67;;;15.10;99.90;;;;;;6248271;23;20066;-84
2022/07/07 04:52:08;;;;;;;8.05;1.20;;;15.20;99.90;;;;;;6223224;23;20047;-85
2022/07/07 04:54:33;;;;;;;7.80;1.42;;;15.10;99.90;;;;;;6249996;23;20031;-85
2022/07/07 04:56:59;;;;;;;8.30;1.20;;;15.20;99.90;;;;;;6222685;23;20407;-83
2022/07/07 04:59:24;;;;;;;9.32;1.60;;;15.20;99.90;;;;;;6247424;23;20102;-84
2022/07/07 05:01:50;;;;;;;7.07;1.15;;;15.20;99.90;;;;;;6247883;22;20019;-84
2022/07/07 05:04:16;;;;;;;5.75;1.30;;;15.20;99.90;;;;;;6247677;23;20015;-84
2022/07/07 05:06:42;;;;;;;9.30;1.80;;;15.20;99.90;;;;;;6248823;23;20054;-83
2022/07/07 05:09:07;;;;;;;11.30;1.13;;;15.20;99.90;;;;;;6249539;23;20100;-84
2022/07/07 05:11:33;;;;;;;9.57;1.92;;;15.20;99.90;;;;;;6248726;22;20012;-84
2022/07/07 05:13:58;;;;;;;6.63;1.20;;;15.30;99.90;;;;;;6266370;23;20011;-81
2022/07/07 05:16:24;;;;;;;7.82;1.50;;;15.30;99.90;;;;;;6268847;23;20059;-81
2022/07/07 05:18:50;;;;;;;8.18;1.58;;;15.30;99.90;;;;;;6250071;23;20388;-83
2022/07/07 05:21:16;;;;;;;12.98;1.73;;;15.30;99.90;;;;;;6222933;23;20016;-84
2022/07/07 05:23:41;;;;;;;14.88;2.47;;;15.40;99.90;;;;;;6249317;23;20023;-84
2022/07/07 05:26:07;;;;;;;16.38;2.00;;;15.40;99.90;;;;;;6248183;23;20019;-85
2022/07/07 05:28:33;;;;;;;12.35;2.03;;;15.40;99.90;;;;;;6247805;23;20012;-85
2022/07/07 05:30:59;;;;;;;16.23;2.00;;;15.40;99.90;;;;;;6248699;22;20062;-85
2022/07/07 05:33:24;;;;;;;14.57;2.00;;;15.40;99.90;;;;;;6222604;23;20373;-85
2022/07/07 05:35:50;;;;;;;11.80;2.08;;;15.40;99.90;;;;;;6247244;23;20016;-85
2022/07/07 05:38:16;;;;;;;11.52;1.73;;;15.40;99.90;;;;;;6221764;23;20016;-84
2022/07/07 05:40:41;;;;;;;14.00;1.73;;;15.40;99.90;;;;;;6221343;23;20039;-81
2022/07/07 05:43:08;;;;;;;10.30;1.63;;;15.40;99.90;;;;;;6221783;23;20016;-85
2022/07/07 05:45:33;;;;;;;12.23;1.67;;;15.50;99.90;;;;;;6247137;23;20035;-84
2022/07/07 05:47:59;;;;;;;10.27;2.55;;;15.50;99.90;;;;;;6247354;23;20024;-84
2022/07/07 05:50:24;;;;;;;11.68;2.10;;;15.50;99.90;;;;;;6247543;22;20059;-84
2022/07/07 05:52:50;;;;;;;9.18;1.67;;;15.50;99.90;;;;;;6247246;23;20012;-84
2022/07/07 05:55:16;;;;;;;11.75;1.85;;;15.50;99.90;;;;;;6247284;23;20171;-83
2022/07/07 05:57:41;;;;;;;11.35;1.83;;;15.60;99.90;;;;;;6249684;23;20464;-83
2022/07/07 06:00:10;;;;;;;8.38;2.00;;;15.60;99.90;;;;;;6247564;23;20019;-84
2022/07/07 06:02:36;;;;;;;14.77;1.95;;;15.60;99.90;;;;;;6247592;22;20103;-82
2022/07/07 06:05:02;;;;;;;15.73;2.90;;;15.60;99.90;;;;;;6246578;23;20012;-84
2022/07/07 06:07:28;;;;;;;8.80;2.78;;;15.60;99.90;;;;;;6247880;23;20353;-83
2022/07/07 06:09:54;;;;;;;8.73;1.80;;;15.70;99.90;;;;;;6248554;23;20016;-85
2022/07/07 06:12:21;;;;;;;14.52;1.77;;;15.80;99.90;;;;;;6248309;22;20111;-83
2022/07/07 06:14:47;;;;;;;7.82;1.20;;;15.80;99.90;;;;;;6247323;23;20044;-81
2022/07/07 06:17:13;;;;;;;6.45;1.20;;;15.80;99.90;;;;;;6246491;23;20373;-82
2022/07/07 06:19:38;;;;;;;11.23;1.27;;;15.90;99.90;;;;;;6246875;23;20012;-84
2022/07/07 06:22:07;;;;;;;9.15;1.63;;;15.90;99.90;;;;;;6246551;22;20039;-84
2022/07/07 06:24:33;;;;;;;9.82;1.33;;;15.90;99.90;;;;;;6246612;23;20012;-83
2022/07/07 06:26:59;;;;;;;12.85;1.60;;;15.90;99.90;;;;;;6245722;23;20030;-82
2022/07/07 06:29:25;;;;;;;6.50;1.00;;;16.00;99.90;;;;;;6247969;22;20020;-84
2022/07/07 06:31:50;;;;;;;10.82;2.17;;;16.10;99.90;;;;;;6248138;22;20008;-82
2022/07/07 06:34:16;;;;;;;6.43;1.30;;;16.10;99.90;;;;;;6246599;23;20008;-83
2022/07/07 06:36:41;;;;;;;13.45;1.77;;;16.10;99.90;;;;;;6247803;23;20092;-84
2022/07/07 06:39:07;;;;;;;8.70;1.42;;;16.10;99.90;;;;;;6220914;23;20048;-84
2022/07/07 06:41:35;;;;;;;7.85;1.00;;;16.20;99.90;;;;;;6248755;22;20012;-84
2022/07/07 06:44:01;;;;;;;5.25;1.00;;;16.20;99.90;;;;;;6246588;23;20035;-84
2022/07/07 06:46:26;;;;;;;6.93;1.50;;;16.10;99.90;;;;;;6246691;23;20010;-84
2022/07/07 06:48:52;;;;;;;7.53;1.05;;;16.00;99.90;;;;;;6221200;23;20012;-82
2022/07/07 06:51:18;;;;;;;6.15;1.30;;;16.00;99.90;;;;;;6220977;23;20358;-84
2022/07/07 06:53:43;;;;;;;6.13;1.40;;;15.90;99.90;;;;;;6247241;23;20012;-84
2022/07/07 06:56:09;;;;;;;3.97;0.73;;;16.00;99.90;;;;;;6246853;23;20030;-85
2022/07/07 06:58:34;;;;;;;6.10;1.17;;;16.00;99.90;;;;;;6248503;23;20036;-83
2022/07/07 07:01:03;;;;;;;4.00;0.90;;;16.10;99.90;;;;;;6247995;22;20311;-85
2022/07/07 07:03:29;;;;;;;3.90;0.85;;;16.00;99.90;;;;;;6247427;23;20012;-84
2022/07/07 07:05:55;;;;;;;4.72;0.60;;;16.10;99.90;;;;;;6221401;23;20015;-85
2022/07/07 07:08:20;;;;;;;5.68;0.80;;;16.00;99.90;;;;;;6246496;23;20012;-86
2022/07/07 07:10:46;;;;;;;6.75;1.27;;;16.10;99.90;;;;;;6246158;22;20094;-82
2022/07/07 07:13:11;;;;;;;5.55;0.90;;;16.10;99.90;;;;;;6246031;23;20106;-83
2022/07/07 07:15:39;;;;;;;4.45;0.80;;;16.10;99.90;;;;;;6221158;23;20020;-82
2022/07/07 07:18:05;;;;;;;4.07;0.60;;;16.20;99.90;;;;;;6246409;23;20024;-85
2022/07/07 07:20:31;;;;;;;4.57;0.60;;;16.20;99.90;;;;;;6246404;22;20442;-85
2022/07/07 07:22:57;;;;;;;6.72;0.65;;;16.20;99.90;;;;;;6246273;23;20012;-84
2022/07/07 07:25:22;;;;;;;7.90;0.70;;;16.20;99.90;;;;;;6247749;23;20334;-86
2022/07/07 07:27:48;;;;;;;7.10;0.80;;;16.20;99.90;;;;;;6246529;23;20377;-84
2022/07/07 07:30:14;;;;;;;7.30;0.90;;;16.20;99.90;;;;;;6246321;22;20019;-84
2022/07/07 07:32:40;;;;;;;3.95;0.95;;;16.20;99.90;;;;;;6248221;22;20087;-84
2022/07/07 07:35:06;;;;;;;8.45;1.00;;;16.30;99.90;;;;;;6246068;23;20012;-83
2022/07/07 07:37:32;;;;;;;3.95;0.90;;;16.40;99.90;;;;;;6246163;23;20505;-83
2022/07/07 07:39:57;;;;;;;7.45;1.02;;;16.50;99.90;;;;;;6246712;23;20004;-83
2022/07/07 07:42:23;;;;;;;4.55;1.10;;;16.60;99.90;;;;;;6247626;22;20508;-85
2022/07/07 07:47:33;;;;;;;7.93;1.25;;;16.60;99.90;;;;;;6246385;23;20028;-84
2022/07/07 07:49:59;;;;;;;7.78;1.60;;;16.70;99.90;;;;;;6246015;23;20016;-84
2022/07/07 07:52:24;;;;;;;9.45;1.58;;;16.70;99.90;;;;;;6247138;22;20090;-85
2022/07/07 07:54:50;;;;;;;8.15;1.00;;;16.70;99.90;;;;;;6247097;23;20039;-84
2022/07/07 07:57:16;;;;;;;5.97;1.80;;;16.60;99.90;;;;;;6246173;23;20073;-85
2022/07/07 07:59:41;;;;;;;12.35;1.85;;;16.60;99.90;;;;;;6245674;23;20036;-85
2022/07/07 08:02:07;;;;;;;9.48;1.45;;;16.60;99.90;;;;;;6247280;22;20083;-84
2022/07/07 08:04:33;;;;;;;6.40;1.27;;;16.60;99.90;;;;;;6245857;23;20388;-86
2022/07/07 08:06:58;;;;;;;7.82;1.10;;;16.60;99.90;;;;;;6245270;23;20016;-83
2022/07/07 08:09:25;;;;;;;4.15;0.80;;;16.60;99.90;;;;;;6244962;23;20047;-84
2022/07/07 08:11:51;;;;;;;6.53;1.50;;;16.50;99.90;;;;;;6246184;22;20016;-84
2022/07/07 08:14:16;;;;;;;6.75;1.35;;;16.40;99.90;;;;;;6246726;23;20016;-85
2022/07/07 08:16:42;;;;;;;6.45;1.05;;;16.30;99.90;;;;;;6247109;22;20009;-85
2022/07/07 08:19:08;;;;;;;4.75;1.00;;;16.30;99.90;;;;;;6247988;23;20004;-84
2022/07/07 08:21:39;;;;;;;6.18;1.00;;;16.30;99.90;;;;;;6246194;22;20345;-82
2022/07/07 08:24:05;;;;;;;4.32;1.13;;;16.20;99.90;;;;;;6222536;23;20047;-84
2022/07/07 08:26:30;;;;;;;4.28;1.10;;;16.20;99.90;;;;;;6250353;23;20496;-86
2022/07/07 08:28:56;;;;;;;7.60;1.00;;;16.30;99.90;;;;;;6248199;23;20506;-84
2022/07/07 08:31:22;;;;;;;5.47;0.88;;;16.30;99.90;;;;;;6249501;22;20020;-85
2022/07/07 08:33:48;;;;;;;9.60;1.30;;;16.40;99.90;;;;;;6249545;23;20107;-84
2022/07/07 08:36:13;;;;;;;9.25;1.40;;;16.50;99.90;;;;;;6249437;23;20087;-84
2022/07/07 08:38:39;;;;;;;5.35;1.00;;;16.60;99.90;;;;;;6249714;23;20012;-86
2022/07/07 08:41:05;;;;;;;6.43;1.20;;;16.70;99.90;;;;;;6249391;22;20016;-86
2022/07/07 08:43:30;;;;;;;6.63;1.25;;;16.70;99.90;;;;;;6249985;23;20422;-84
2022/07/07 08:45:56;;;;;;;4.65;1.08;;;16.70;99.90;;;;;;6223051;23;20012;-83
2022/07/07 08:48:22;;;;;;;5.95;1.20;;;16.70;99.90;;;;;;6224789;23;20100;-85
2022/07/07 08:50:48;;;;;;;7.55;1.20;;;16.70;99.90;;;;;;6251417;22;20016;-85
2022/07/07 08:53:13;;;;;;;4.60;1.50;;;16.90;99.90;;;;;;6249821;23;20027;-85
2022/07/07 08:55:41;;;;;;;8.70;1.63;;;17.00;99.90;;;;;;6249712;23;20019;-85
2022/07/07 08:58:10;;;;;;;7.93;2.15;;;17.10;99.90;;;;;;6250891;23;20047;-84
2022/07/07 09:00:35;;;;;;;7.57;1.40;;;17.10;99.90;;;;;;6249543;22;20016;-85
2022/07/07 09:03:05;;;;;;;8.40;1.20;;;17.20;99.90;;;;;;6250052;23;20031;-84
2022/07/07 09:05:37;;;;;;;6.75;1.48;;;17.30;99.90;;;;;;6249491;23;20039;-86
2022/07/07 09:08:20;;;;;;;6.13;1.20;;;17.30;99.90;;;;;;6224178;23;20438;-83
2022/07/07 09:10:46;;;;;;;5.03;1.10;;;17.30;99.90;;;;;;6223410;23;20066;-85
2022/07/07 09:13:25;;;;;;;5.15;1.40;;;17.30;99.90;;;;;;6249443;23;20015;-84
2022/07/07 09:16:01;;;;;;;8.48;1.52;;;17.20;99.90;;;;;;6248707;23;20025;-84
2022/07/07 09:18:36;;;;;;;9.40;1.50;;;17.30;99.90;;;;;;6247918;23;20342;-81
2022/07/07 09:21:05;;;;;;;9.23;1.48;;;17.30;99.90;;;;;;6246517;22;20012;-77
2022/07/07 09:23:31;;;;;;;10.95;1.52;;;17.30;99.90;;;;;;6246870;23;20019;-80
2022/07/07 09:25:58;;;;;;;6.05;1.33;;;17.30;99.90;;;;;;6250037;23;20083;-83
2022/07/07 09:28:26;;;;;;;5.13;1.42;;;17.20;99.90;;;;;;6222658;23;20087;-82
2022/07/07 09:30:53;;;;;;;7.97;1.63;;;17.20;99.90;;;;;;6248669;22;20019;-82
2022/07/07 09:33:20;;;;;;;6.30;1.50;;;17.20;99.90;;;;;;6247465;23;20065;-83
2022/07/07 09:38:32;;;;;;;7.88;1.55;;;17.20;99.90;;;;;;6248947;23;20138;-82
2022/07/07 09:41:11;;;;;;;8.35;1.75;;;17.20;99.90;;;;;;6245894;22;20012;-82
2022/07/07 09:43:38;;;;;;;5.97;1.50;;;17.40;99.90;;;;;;6246040;23;20446;-81
2022/07/07 09:46:20;;;;;;;6.38;1.55;;;17.50;99.90;;;;;;6245971;23;20335;-81
2022/07/07 09:48:47;;;;;;;5.78;1.60;;;17.70;99.90;;;;;;6246214;23;20435;-82
2022/07/07 09:51:15;;;;;;;6.85;1.60;;;17.90;99.90;;;;;;6245958;22;20082;-80
2022/07/07 09:53:59;;;;;;;6.57;1.52;;;18.00;99.90;;;;;;6248469;22;20030;-81
2022/07/07 09:56:33;;;;;;;7.65;1.40;;;18.00;99.90;;;;;;6249448;23;20044;-81
2022/07/07 09:59:01;;;;;;;6.28;1.90;;;17.80;99.90;;;;;;6247616;23;20016;-82
2022/07/07 10:01:29;;;;;;;4.97;0.98;;;17.50;99.90;;;;;;6246625;22;20012;-81
2022/07/07 10:03:59;;;;;;;6.78;1.20;;;17.40;99.90;;;;;;6246717;23;20039;-81
2022/07/07 10:06:27;;;;;;;5.57;1.17;;;17.20;99.90;;;;;;6248803;22;20016;-81
2022/07/07 10:09:03;;;;;;;5.75;1.40;;;17.10;99.90;;;;;;6246446;23;20012;-80
2022/07/07 10:11:44;;;;;;;5.47;1.20;;;17.10;99.90;;;;;;6246676;22;20023;-81
2022/07/07 10:14:12;;;;;;;4.15;1.23;;;17.20;99.90;;;;;;6247068;23;20043;-82
2022/07/07 10:16:38;;;;;;;7.70;1.10;;;17.30;99.90;;;;;;6246898;23;20346;-81
2022/07/07 10:19:05;;;;;;;6.20;1.30;;;17.20;99.90;;;;;;6247002;23;20023;-82
2022/07/07 10:21:31;;;;;;;4.35;1.20;;;17.20;99.90;;;;;;6246461;22;20050;-81
2022/07/07 10:23:58;;;;;;;5.18;1.30;;;17.30;99.90;;;;;;6248080;23;20461;-82
2022/07/07 10:26:38;;;;;;;7.30;1.33;;;17.40;99.90;;;;;;6246519;23;20012;-81
2022/07/07 10:29:05;;;;;;;4.72;1.30;;;17.50;99.90;;;;;;6247829;23;20058;-82
2022/07/07 10:31:31;;;;;;;3.97;1.20;;;17.40;99.90;;;;;;6246980;22;20019;-81
2022/07/07 10:34:01;;;;;;;7.90;1.30;;;17.40;99.90;;;;;;6246900;23;20054;-81
2022/07/07 10:36:50;;;;;;;5.22;1.25;;;17.20;99.90;;;;;;6246820;23;20061;-80
2022/07/07 10:39:17;;;;;;;5.53;1.25;;;17.10;99.90;;;;;;6247752;22;20469;-81
2022/07/07 10:42:16;;;;;;;10.77;2.05;;;17.00;99.90;;;;;;6249258;22;20326;-81
2022/07/07 10:44:45;;;;;;;10.43;1.83;;;17.10;99.90;;;;;;6246168;23;20012;-82
2022/07/07 10:47:10;;;;;;;8.35;1.77;;;17.20;99.90;;;;;;6246305;23;20054;-81
2022/07/07 10:49:42;;;;;;;7.57;1.70;;;17.30;99.90;;;;;;6221564;23;20012;-79
2022/07/07 10:52:14;;;;;;;8.30;2.00;;;17.30;99.90;;;;;;6246203;22;20016;-80
2022/07/07 10:54:45;;;;;;;12.98;1.95;;;17.20;99.90;;;;;;6245488;23;20088;-81
2022/07/07 10:57:29;;;;;;;10.48;2.25;;;17.10;99.90;;;;;;6245760;23;20042;-80
2022/07/07 11:00:04;;;;;;;10.00;2.05;;;17.10;99.90;;;;;;6244802;23;20079;-80
2022/07/07 11:02:29;;;;;;;12.88;2.28;;;17.20;99.90;;;;;;6220792;23;20012;-80
2022/07/07 11:04:56;;;;;;;7.97;2.22;;;17.20;99.90;;;;;;6245462;23;20524;-80
2022/07/07 11:07:27;;;;;;;11.30;2.30;;;17.20;99.90;;;;;;6245649;23;20027;-81
2022/07/07 11:09:59;;;;;;;12.80;2.20;;;17.20;99.90;;;;;;6245895;23;20019;-80
2022/07/07 11:12:45;;;;;;;18.15;2.85;;;17.30;99.90;;;;;;6245980;22;20050;-80
2022/07/07 11:15:30;;;;;;;16.35;2.88;;;17.20;99.90;;;;;;6250628;23;20016;-77
2022/07/07 11:17:56;;;;;;;16.48;3.15;;;17.10;99.90;;;;;;6256754;23;20016;-77
2022/07/07 11:20:30;;;;;;;18.75;3.70;;;16.90;99.90;;;;;;6254410;22;20046;-78
2022/07/07 11:23:16;;;;;;;13.75;2.38;;;16.90;99.90;;;;;;6253029;23;20043;-81
2022/07/07 11:25:41;;;;;;;;;;;16.90;99.90;;;;;;6247471;23;20019;-80
2022/07/07 11:28:08;;;;;;;10.30;1.90;;;16.90;99.90;;;;;;6247622;23;20244;-80
2022/07/07 11:30:35;;;;;;;13.65;1.95;;;17.10;99.90;;;;;;6247407;22;20083;-82
2022/07/07 11:33:02;;;;;;;10.75;2.20;;;17.10;99.90;;;;;;6245354;23;20016;-80
2022/07/07 11:35:36;;;;;;;10.43;1.90;;;17.30;99.90;;;;;;6245145;23;20027;-81
2022/07/07 11:38:04;;;;;;;8.07;1.70;;;17.40;99.90;;;;;;6219759;23;20019;-81
2022/07/07 11:40:31;;;;;;;9.80;2.10;;;17.50;99.90;;;;;;6245051;22;20012;-82
2022/07/07 11:43:00;;;;;;;11.07;1.80;;;17.70;99.90;;;;;;6244823;23;20430;-82
2022/07/07 11:45:30;;;;;;;11.52;1.83;;;17.70;99.90;;;;;;6245053;23;20382;-82
2022/07/07 11:48:01;;;;;;;10.38;1.80;;;17.70;99.90;;;;;;6245031;23;20065;-80
2022/07/07 11:50:30;;;;;;;10.07;1.95;;;17.70;99.90;;;;;;6244501;22;20102;-81
2022/07/07 11:52:58;;;;;;;10.30;2.00;;;17.70;99.90;;;;;;6219694;23;20027;-80
2022/07/07 11:55:24;;;;;;;10.80;1.95;;;17.70;99.90;;;;;;6219211;23;20039;-81
2022/07/07 11:57:57;;;;;;;11.43;2.10;;;17.80;99.90;;;;;;6218891;23;20015;-82
2022/07/07 12:00:31;;;;;;;12.23;1.92;;;17.90;99.90;;;;;;6219018;22;20066;-81
2022/07/07 12:03:00;;;;;;;11.00;1.65;;;18.00;99.90;;;;;;6244446;23;20346;-81
2022/07/07 12:05:29;;;;;;;8.18;1.95;;;18.10;99.90;;;;;;6244161;23;20022;-82
2022/07/07 12:08:07;;;;;;;10.50;1.90;;;18.20;99.90;;;;;;6244231;23;20047;-82
2022/07/07 12:10:39;;;;;;;13.77;2.22;;;18.20;99.90;;;;;;6244286;22;20016;-81
2022/07/07 12:13:09;;;;;;;10.02;1.85;;;18.20;99.90;;;;;;6246354;23;20019;-82
2022/07/07 12:15:40;;;;;;;12.85;2.53;;;18.20;99.90;;;;;;6246555;23;20119;-81
2022/07/07 12:18:07;;;;;;;8.43;1.90;;;18.10;99.90;;;;;;6244969;23;20094;-81
2022/07/07 12:20:33;;;;;;;14.07;2.65;;;18.00;99.90;;;;;;6244463;22;20008;-82
2022/07/07 12:23:01;;;;;;;8.95;1.95;;;17.90;99.90;;;;;;6245169;23;20062;-81
2022/07/07 12:25:33;;;;;;;12.75;2.10;;;18.00;99.90;;;;;;6247389;23;20039;-81
2022/07/07 12:28:02;;;;;;;12.13;2.00;;;18.00;99.90;;;;;;6245558;23;20016;-81
2022/07/07 12:30:30;;;;;;;9.95;1.80;;;18.10;99.90;;;;;;6245577;22;20024;-81
2022/07/07 12:32:57;;;;;;;11.40;1.83;;;18.00;99.90;;;;;;6245684;23;20099;-80
2022/07/07 12:35:37;;;;;;;14.18;2.35;;;17.90;99.90;;;;;;6247218;23;20015;-81
2022/07/07 12:38:05;;;;;;;14.48;2.30;;;17.90;99.90;;;;;;6245200;23;20087;-81
2022/07/07 12:40:33;;;;;;;10.77;2.38;;;17.90;99.90;;;;;;6245283;22;20023;-81
2022/07/07 12:43:11;;;;;;;13.43;2.17;;;17.80;99.90;;;;;;6245275;23;20008;-81
2022/07/07 12:45:42;;;;;;;10.98;2.30;;;17.70;99.90;;;;;;6246708;23;20430;-81
2022/07/07 12:48:18;;;;;;;16.05;3.25;;;17.60;99.90;;;;;;6245448;23;20062;-81
2022/07/07 12:50:44;;;;;;;12.45;3.08;;;17.50;99.90;;;;;;6247084;22;20078;-80
2022/07/07 12:53:10;;;;;;;17.67;3.13;;;17.50;99.90;;;;;;6244802;23;20442;-80
2022/07/07 12:55:44;;;;;;;12.80;2.75;;;17.40;99.90;;;;;;6246317;23;20106;-80
2022/07/07 12:58:12;;;;;;;10.65;2.97;;;17.40;99.90;;;;;;6245992;23;20008;-80
2022/07/07 13:00:39;;;;;;;14.52;2.47;;;17.40;99.90;;;;;;6244849;22;20022;-80
2022/07/07 13:03:05;;;;;;;13.52;2.05;;;17.40;99.90;;;;;;6247070;23;20054;-79
2022/07/07 13:05:30;;;;;;;12.27;2.40;;;17.40;99.90;;;;;;6219937;23;20016;-79
2022/07/07 13:07:56;;;;;;;12.48;2.42;;;17.40;99.90;;;;;;6246035;23;20015;-80
2022/07/07 13:10:24;;;;;;;14.65;2.10;;;17.40;99.90;;;;;;6246659;22;20454;-81
2022/07/07 13:12:50;;;;;;;13.30;2.53;;;17.40;99.90;;;;;;6246871;23;20016;-80
2022/07/07 13:15:16;;;;;;;12.35;2.35;;;17.50;99.90;;;;;;6246812;23;20031;-81
2022/07/07 13:17:44;;;;;;;12.95;2.22;;;17.60;99.90;;;;;;6247010;23;20291;-81
2022/07/07 13:20:11;;;;;;;7.10;1.90;;;17.60;99.90;;;;;;6246839;23;20043;-79
2022/07/07 13:22:41;;;;;;;11.90;2.47;;;17.60;99.90;;;;;;6247349;22;20008;-81
2022/07/07 13:25:07;;;;;;;10.35;2.03;;;17.50;99.90;;;;;;6246897;23;20012;-82
2022/07/07 13:27:34;;;;;;;11.75;1.90;;;17.40;99.90;;;;;;6246852;23;20016;-81
2022/07/07 13:29:59;;;;;;;11.40;2.20;;;17.40;99.90;;;;;;6247112;23;20016;-82
2022/07/07 13:32:25;;;;;;;9.65;1.75;;;17.60;99.90;;;;;;6221783;23;20027;-81
2022/07/07 13:34:51;;;;;;;13.63;2.55;;;17.60;99.90;;;;;;6221808;23;20095;-81
2022/07/07 13:37:16;;;;;;;11.25;2.22;;;17.60;99.90;;;;;;6247472;23;20016;-82
2022/07/07 13:39:42;;;;;;;11.30;1.88;;;17.60;99.90;;;;;;6247042;23;20012;-81
2022/07/07 13:42:08;;;;;;;11.05;1.98;;;17.50;99.90;;;;;;6246444;22;20421;-82
2022/07/07 13:44:34;;;;;;;13.95;2.60;;;17.60;99.90;;;;;;6245968;23;20013;-81
2022/07/07 13:47:00;;;;;;;9.85;1.67;;;17.60;99.90;;;;;;6246790;23;20418;-80
2022/07/07 13:49:25;;;;;;;14.52;2.05;;;17.60;99.90;;;;;;6246707;23;20027;-80
2022/07/07 13:51:51;;;;;;;9.30;1.60;;;17.60;99.90;;;;;;6248836;22;20049;-79
2022/07/07 13:54:17;;;;;;;8.57;1.60;;;17.50;99.90;;;;;;6248251;23;20361;-80
2022/07/07 13:56:44;;;;;;;9.38;1.55;;;17.50;99.90;;;;;;6246469;23;20012;-82
2022/07/07 13:59:11;;;;;;;11.15;2.13;;;17.50;99.90;;;;;;6248502;23;20130;-81
2022/07/07 14:01:38;;;;;;;8.68;1.90;;;17.50;99.90;;;;;;6246417;22;20008;-81
2022/07/07 14:04:04;;;;;;;6.00;1.30;;;17.50;99.90;;;;;;6247705;23;20023;-81
2022/07/07 14:06:30;;;;;;;5.50;1.33;;;17.60;99.90;;;;;;6221617;23;20004;-81
2022/07/07 14:08:56;;;;;;;8.18;1.25;;;17.70;99.90;;;;;;6247919;23;20023;-82
2022/07/07 14:11:21;;;;;;;7.30;1.40;;;17.90;99.90;;;;;;6246196;22;20020;-81
2022/07/07 14:13:47;;;;;;;8.02;1.55;;;18.00;99.90;;;;;;6246345;23;20020;-81
2022/07/07 14:16:13;;;;;;;10.68;1.60;;;18.00;99.90;;;;;;6246194;23;20012;-82
2022/07/07 14:18:38;;;;;;;6.82;1.60;;;17.80;99.90;;;;;;6245990;23;20026;-81
2022/07/07 14:21:04;;;;;;;8.02;1.40;;;17.80;99.90;;;;;;6246156;22;20008;-81
2022/07/07 14:23:30;;;;;;;11.02;1.40;;;17.70;99.90;;;;;;6246006;23;20058;-81
2022/07/07 14:25:56;;;;;;;7.53;1.30;;;17.70;99.90;;;;;;6246438;23;20095;-81
2022/07/07 14:28:21;;;;;;;7.13;1.48;;;17.90;99.90;;;;;;6247053;23;20008;-81
2022/07/07 14:30:48;;;;;;;5.65;1.35;;;18.00;99.90;;;;;;6246053;22;20093;-81
2022/07/07 14:33:14;;;;;;;7.07;1.35;;;18.00;99.90;;;;;;6246033;23;20016;-81
2022/07/07 14:35:39;;;;;;;6.38;1.17;;;17.90;99.90;;;;;;6248132;23;20012;-80
2022/07/07 14:38:06;;;;;;;9.48;1.40;;;17.90;99.90;;;;;;6246380;23;20012;-82
2022/07/07 14:40:31;;;;;;;6.55;1.20;;;17.80;99.90;;;;;;6246861;22;20019;-81
2022/07/07 14:42:58;;;;;;;9.95;1.58;;;17.80;99.90;;;;;;6246804;23;20323;-81
2022/07/07 14:45:23;;;;;;;6.55;1.20;;;17.80;99.90;;;;;;6246548;23;20066;-82
2022/07/07 14:47:49;;;;;;;7.45;1.90;;;17.80;99.90;;;;;;6247920;23;20381;-79
2022/07/07 14:50:15;;;;;;;4.60;1.17;;;17.70;99.90;;;;;;6220453;22;20024;-80
2022/07/07 14:52:40;;;;;;;6.57;1.67;;;17.70;99.90;;;;;;6248051;23;20008;-81
2022/07/07 14:55:06;;;;;;;7.53;1.27;;;17.60;99.90;;;;;;6249231;23;20039;-82
2022/07/07 14:57:32;;;;;;;14.32;2.17;;;17.50;99.90;;;;;;6246475;23;20020;-81
2022/07/07 14:59:57;;;;;;;8.02;1.67;;;17.40;99.90;;;;;;6247203;23;20008;-82
2022/07/07 15:02:23;;;;;;;9.73;1.70;;;17.40;99.90;;;;;;6220834;23;20500;-81
2022/07/07 15:04:49;;;;;;;8.95;1.60;;;17.30;99.90;;;;;;6247617;23;20061;-87
2022/07/07 15:07:15;;;;;;;10.13;1.65;;;17.30;99.90;;;;;;6247790;23;20101;-85
2022/07/07 15:09:41;;;;;;;10.07;1.60;;;17.40;99.90;;;;;;6249012;23;20016;-84
2022/07/07 15:12:06;;;;;;;9.73;2.08;;;17.50;99.90;;;;;;6247867;22;20008;-85
2022/07/07 15:14:32;;;;;;;7.38;1.67;;;17.70;99.90;;;;;;6246922;23;20390;-84
2022/07/07 15:16:58;;;;;;;8.77;1.52;;;17.70;99.90;;;;;;6247292;23;20016;-83
2022/07/07 15:19:24;;;;;;;16.83;2.40;;;17.70;99.90;;;;;;6246924;23;20023;-83
2022/07/07 15:21:50;;;;;;;8.88;1.45;;;17.70;99.90;;;;;;6247578;22;20012;-85
2022/07/07 15:24:16;;;;;;;9.93;2.00;;;17.60;99.90;;;;;;6222372;23;20023;-85
2022/07/07 15:26:42;;;;;;;11.18;1.63;;;17.60;99.90;;;;;;6221337;23;20019;-82
2022/07/07 15:29:08;;;;;;;16.95;1.75;;;17.60;99.90;;;;;;6246427;23;20450;-83
2022/07/07 15:31:33;;;;;;;10.13;1.75;;;17.60;99.90;;;;;;6220929;23;20008;-82
2022/07/07 15:33:59;;;;;;;7.78;1.40;;;17.60;99.90;;;;;;6247394;23;20046;-83
2022/07/07 15:36:25;;;;;;;8.32;1.50;;;17.70;99.90;;;;;;6246431;23;20082;-83
2022/07/07 15:38:51;;;;;;;8.02;1.75;;;17.60;99.90;;;;;;6246743;23;20016;-80
2022/07/07 15:41:16;;;;;;;10.25;1.88;;;17.70;99.90;;;;;;6246305;22;20005;-83
2022/07/07 15:43:44;;;;;;;7.38;1.50;;;17.70;99.90;;;;;;6246269;23;20012;-80
2022/07/07 15:46:15;;;;;;;9.07;1.40;;;17.60;99.90;;;;;;6248464;23;20014;-81
2022/07/07 15:48:47;;;;;;;9.15;1.30;;;17.60;99.90;;;;;;6246402;23;20026;-81
2022/07/07 15:51:15;;;;;;;9.27;1.45;;;17.50;99.90;;;;;;6246542;22;20338;-81